sensor_id;sensor_type;location;lat;lon;timestamp;P1;durP1;ratioP1;P2;durP2;ratioP2
41233;SDS011;26968;42.686;23.352;2022-08-19T00:01:47;27.02;;;8.30;;
41233;SDS011;26968;42.686;23.352;2022-08-19T00:04:14;22.27;;;8.10;;
41233;SDS011;26968;42.686;23.352;2022-08-19T00:06:42;27.58;;;9.77;;
41233;SDS011;26968;42.686;23.352;2022-08-19T00:09:12;22.25;;;8.27;;
41233;SDS011;26968;42.686;23.352;2022-08-19T00:11:39;19.50;;;7.93;;
41233;SDS011;26968;42.686;23.352;2022-08-19T00:14:06;18.70;;;8.15;;
41233;SDS011;26968;42.686;23.352;2022-08-19T00:16:34;17.58;;;8.27;;
41233;SDS011;26968;42.686;23.352;2022-08-19T00:19:01;18.65;;;7.72;;
41233;SDS011;26968;42.686;23.352;2022-08-19T00:21:26;22.00;;;8.10;;
41233;SDS011;26968;42.686;23.352;2022-08-19T00:23:52;14.43;;;7.90;;
41233;SDS011;26968;42.686;23.352;2022-08-19T00:26:19;15.73;;;7.63;;
41233;SDS011;26968;42.686;23.352;2022-08-19T00:28:45;19.15;;;7.85;;
41233;SDS011;26968;42.686;23.352;2022-08-19T00:31:11;11.48;;;7.93;;
41233;SDS011;26968;42.686;23.352;2022-08-19T00:33:37;14.35;;;7.85;;
41233;SDS011;26968;42.686;23.352;2022-08-19T00:36:03;16.75;;;7.95;;
41233;SDS011;26968;42.686;23.352;2022-08-19T00:38:31;19.05;;;7.93;;
41233;SDS011;26968;42.686;23.352;2022-08-19T00:40:57;18.23;;;8.38;;
41233;SDS011;26968;42.686;23.352;2022-08-19T00:43:24;17.15;;;6.88;;
41233;SDS011;26968;42.686;23.352;2022-08-19T00:45:52;17.98;;;7.47;;
41233;SDS011;26968;42.686;23.352;2022-08-19T00:48:18;12.32;;;7.93;;
41233;SDS011;26968;42.686;23.352;2022-08-19T00:50:45;22.23;;;7.53;;
41233;SDS011;26968;42.686;23.352;2022-08-19T00:53:14;16.80;;;7.03;;
41233;SDS011;26968;42.686;23.352;2022-08-19T00:55:45;14.02;;;7.90;;
41233;SDS011;26968;42.686;23.352;2022-08-19T00:58:13;11.98;;;7.65;;
41233;SDS011;26968;42.686;23.352;2022-08-19T01:00:42;13.00;;;7.53;;
41233;SDS011;26968;42.686;23.352;2022-08-19T01:03:10;13.52;;;6.97;;
41233;SDS011;26968;42.686;23.352;2022-08-19T01:05:37;17.60;;;7.88;;
41233;SDS011;26968;42.686;23.352;2022-08-19T01:08:05;15.30;;;7.50;;
41233;SDS011;26968;42.686;23.352;2022-08-19T01:10:33;16.83;;;8.13;;
41233;SDS011;26968;42.686;23.352;2022-08-19T01:13:04;18.83;;;7.15;;
41233;SDS011;26968;42.686;23.352;2022-08-19T01:15:34;17.25;;;7.78;;
41233;SDS011;26968;42.686;23.352;2022-08-19T01:18:06;14.57;;;8.00;;
41233;SDS011;26968;42.686;23.352;2022-08-19T01:20:34;17.08;;;8.07;;
41233;SDS011;26968;42.686;23.352;2022-08-19T01:23:00;13.88;;;8.45;;
41233;SDS011;26968;42.686;23.352;2022-08-19T01:25:31;17.20;;;7.97;;
41233;SDS011;26968;42.686;23.352;2022-08-19T01:28:00;13.23;;;7.95;;
41233;SDS011;26968;42.686;23.352;2022-08-19T01:30:28;14.80;;;7.80;;
41233;SDS011;26968;42.686;23.352;2022-08-19T01:32:56;16.42;;;7.68;;
41233;SDS011;26968;42.686;23.352;2022-08-19T01:35:22;11.45;;;7.57;;
41233;SDS011;26968;42.686;23.352;2022-08-19T01:40:17;17.05;;;7.93;;
41233;SDS011;26968;42.686;23.352;2022-08-19T01:42:45;13.10;;;7.55;;
41233;SDS011;26968;42.686;23.352;2022-08-19T01:45:12;14.88;;;7.80;;
41233;SDS011;26968;42.686;23.352;2022-08-19T01:47:38;12.38;;;7.25;;
41233;SDS011;26968;42.686;23.352;2022-08-19T01:50:04;12.70;;;8.00;;
41233;SDS011;26968;42.686;23.352;2022-08-19T01:52:31;14.25;;;7.85;;
41233;SDS011;26968;42.686;23.352;2022-08-19T01:54:57;8.25;;;7.05;;
41233;SDS011;26968;42.686;23.352;2022-08-19T01:57:23;13.80;;;8.20;;
41233;SDS011;26968;42.686;23.352;2022-08-19T01:59:48;13.60;;;8.18;;
41233;SDS011;26968;42.686;23.352;2022-08-19T02:02:15;23.23;;;8.23;;
41233;SDS011;26968;42.686;23.352;2022-08-19T02:04:40;16.92;;;7.68;;
41233;SDS011;26968;42.686;23.352;2022-08-19T02:07:06;13.60;;;8.73;;
41233;SDS011;26968;42.686;23.352;2022-08-19T02:09:33;15.75;;;8.52;;
41233;SDS011;26968;42.686;23.352;2022-08-19T02:11:59;16.95;;;7.68;;
41233;SDS011;26968;42.686;23.352;2022-08-19T02:14:25;12.32;;;7.90;;
41233;SDS011;26968;42.686;23.352;2022-08-19T02:16:50;13.13;;;7.85;;
41233;SDS011;26968;42.686;23.352;2022-08-19T02:19:16;14.77;;;8.00;;
41233;SDS011;26968;42.686;23.352;2022-08-19T02:21:42;12.88;;;7.32;;
41233;SDS011;26968;42.686;23.352;2022-08-19T02:24:08;13.98;;;8.20;;
41233;SDS011;26968;42.686;23.352;2022-08-19T02:26:34;17.02;;;8.10;;
41233;SDS011;26968;42.686;23.352;2022-08-19T02:29:00;12.48;;;7.13;;
41233;SDS011;26968;42.686;23.352;2022-08-19T02:31:26;15.00;;;7.95;;
41233;SDS011;26968;42.686;23.352;2022-08-19T02:33:53;13.93;;;7.72;;
41233;SDS011;26968;42.686;23.352;2022-08-19T02:36:19;16.65;;;8.10;;
41233;SDS011;26968;42.686;23.352;2022-08-19T02:38:45;14.93;;;8.38;;
41233;SDS011;26968;42.686;23.352;2022-08-19T02:41:22;16.95;;;8.20;;
41233;SDS011;26968;42.686;23.352;2022-08-19T02:43:49;20.63;;;8.02;;
41233;SDS011;26968;42.686;23.352;2022-08-19T02:46:16;11.30;;;7.60;;
41233;SDS011;26968;42.686;23.352;2022-08-19T02:48:46;16.98;;;8.30;;
41233;SDS011;26968;42.686;23.352;2022-08-19T02:51:17;15.93;;;7.78;;
41233;SDS011;26968;42.686;23.352;2022-08-19T02:53:44;23.00;;;8.25;;
41233;SDS011;26968;42.686;23.352;2022-08-19T02:56:10;12.30;;;8.25;;
41233;SDS011;26968;42.686;23.352;2022-08-19T02:58:35;16.05;;;7.97;;
41233;SDS011;26968;42.686;23.352;2022-08-19T03:01:00;19.75;;;8.43;;
41233;SDS011;26968;42.686;23.352;2022-08-19T03:03:26;17.90;;;8.43;;
41233;SDS011;26968;42.686;23.352;2022-08-19T03:06:01;19.65;;;8.38;;
41233;SDS011;26968;42.686;23.352;2022-08-19T03:08:28;17.63;;;8.63;;
41233;SDS011;26968;42.686;23.352;2022-08-19T03:10:55;15.05;;;8.18;;
41233;SDS011;26968;42.686;23.352;2022-08-19T03:13:20;16.10;;;8.55;;
41233;SDS011;26968;42.686;23.352;2022-08-19T03:15:47;17.98;;;8.05;;
41233;SDS011;26968;42.686;23.352;2022-08-19T03:18:12;13.45;;;8.32;;
41233;SDS011;26968;42.686;23.352;2022-08-19T03:20:40;15.20;;;8.35;;
41233;SDS011;26968;42.686;23.352;2022-08-19T03:23:09;13.65;;;8.23;;
41233;SDS011;26968;42.686;23.352;2022-08-19T03:25:36;14.82;;;8.18;;
41233;SDS011;26968;42.686;23.352;2022-08-19T03:28:03;14.32;;;8.13;;
41233;SDS011;26968;42.686;23.352;2022-08-19T03:30:29;17.17;;;7.80;;
41233;SDS011;26968;42.686;23.352;2022-08-19T03:32:54;11.35;;;7.45;;
41233;SDS011;26968;42.686;23.352;2022-08-19T03:35:20;15.60;;;7.72;;
41233;SDS011;26968;42.686;23.352;2022-08-19T03:37:45;20.33;;;9.57;;
41233;SDS011;26968;42.686;23.352;2022-08-19T03:40:11;13.57;;;8.23;;
41233;SDS011;26968;42.686;23.352;2022-08-19T03:42:36;18.52;;;8.07;;
41233;SDS011;26968;42.686;23.352;2022-08-19T03:45:02;22.10;;;9.35;;
41233;SDS011;26968;42.686;23.352;2022-08-19T03:47:28;14.73;;;8.13;;
41233;SDS011;26968;42.686;23.352;2022-08-19T03:49:53;17.38;;;8.82;;
41233;SDS011;26968;42.686;23.352;2022-08-19T03:52:19;16.30;;;9.18;;
41233;SDS011;26968;42.686;23.352;2022-08-19T03:54:45;15.82;;;9.07;;
41233;SDS011;26968;42.686;23.352;2022-08-19T03:57:10;22.30;;;9.65;;
41233;SDS011;26968;42.686;23.352;2022-08-19T03:59:36;20.67;;;9.35;;
41233;SDS011;26968;42.686;23.352;2022-08-19T04:02:05;15.30;;;9.25;;
41233;SDS011;26968;42.686;23.352;2022-08-19T04:04:34;20.70;;;9.63;;
41233;SDS011;26968;42.686;23.352;2022-08-19T04:07:00;22.90;;;8.90;;
41233;SDS011;26968;42.686;23.352;2022-08-19T04:09:26;17.17;;;9.07;;
41233;SDS011;26968;42.686;23.352;2022-08-19T04:11:52;18.73;;;9.40;;
41233;SDS011;26968;42.686;23.352;2022-08-19T04:14:20;22.33;;;9.20;;
41233;SDS011;26968;42.686;23.352;2022-08-19T04:16:48;21.90;;;9.50;;
41233;SDS011;26968;42.686;23.352;2022-08-19T04:19:14;18.88;;;10.15;;
41233;SDS011;26968;42.686;23.352;2022-08-19T04:21:42;22.02;;;9.68;;
41233;SDS011;26968;42.686;23.352;2022-08-19T04:24:09;15.73;;;8.80;;
41233;SDS011;26968;42.686;23.352;2022-08-19T04:26:35;20.88;;;8.45;;
41233;SDS011;26968;42.686;23.352;2022-08-19T04:29:03;27.80;;;9.85;;
41233;SDS011;26968;42.686;23.352;2022-08-19T04:31:33;22.50;;;9.52;;
41233;SDS011;26968;42.686;23.352;2022-08-19T04:34:01;19.73;;;9.75;;
41233;SDS011;26968;42.686;23.352;2022-08-19T04:36:30;19.63;;;10.18;;
41233;SDS011;26968;42.686;23.352;2022-08-19T04:38:58;19.33;;;9.48;;
41233;SDS011;26968;42.686;23.352;2022-08-19T04:41:26;20.20;;;10.05;;
41233;SDS011;26968;42.686;23.352;2022-08-19T04:44:10;21.58;;;9.30;;
41233;SDS011;26968;42.686;23.352;2022-08-19T04:46:36;23.20;;;10.30;;
41233;SDS011;26968;42.686;23.352;2022-08-19T04:49:02;21.15;;;9.38;;
41233;SDS011;26968;42.686;23.352;2022-08-19T04:51:30;17.55;;;9.80;;
41233;SDS011;26968;42.686;23.352;2022-08-19T04:53:57;24.50;;;10.35;;
41233;SDS011;26968;42.686;23.352;2022-08-19T04:56:25;21.88;;;9.82;;
41233;SDS011;26968;42.686;23.352;2022-08-19T04:58:52;19.52;;;11.18;;
41233;SDS011;26968;42.686;23.352;2022-08-19T05:01:21;14.18;;;9.88;;
41233;SDS011;26968;42.686;23.352;2022-08-19T05:03:53;25.40;;;12.27;;
41233;SDS011;26968;42.686;23.352;2022-08-19T05:06:20;15.40;;;11.32;;
41233;SDS011;26968;42.686;23.352;2022-08-19T05:08:47;21.40;;;11.88;;
41233;SDS011;26968;42.686;23.352;2022-08-19T05:11:18;26.50;;;11.93;;
41233;SDS011;26968;42.686;23.352;2022-08-19T05:13:46;23.30;;;12.70;;
41233;SDS011;26968;42.686;23.352;2022-08-19T05:16:17;26.60;;;13.13;;
41233;SDS011;26968;42.686;23.352;2022-08-19T05:18:44;24.95;;;12.05;;
41233;SDS011;26968;42.686;23.352;2022-08-19T05:21:28;19.25;;;10.82;;
41233;SDS011;26968;42.686;23.352;2022-08-19T05:24:14;22.45;;;11.60;;
41233;SDS011;26968;42.686;23.352;2022-08-19T05:26:41;27.20;;;13.15;;
41233;SDS011;26968;42.686;23.352;2022-08-19T05:29:11;23.52;;;12.23;;
41233;SDS011;26968;42.686;23.352;2022-08-19T05:31:37;26.77;;;12.20;;
41233;SDS011;26968;42.686;23.352;2022-08-19T05:34:03;23.40;;;12.20;;
41233;SDS011;26968;42.686;23.352;2022-08-19T05:36:32;27.50;;;12.82;;
41233;SDS011;26968;42.686;23.352;2022-08-19T05:39:00;25.30;;;11.88;;
41233;SDS011;26968;42.686;23.352;2022-08-19T05:41:28;24.67;;;12.95;;
41233;SDS011;26968;42.686;23.352;2022-08-19T05:43:54;23.67;;;12.13;;
41233;SDS011;26968;42.686;23.352;2022-08-19T05:46:21;24.48;;;12.82;;
41233;SDS011;26968;42.686;23.352;2022-08-19T05:48:47;27.23;;;12.93;;
41233;SDS011;26968;42.686;23.352;2022-08-19T05:51:13;26.52;;;12.15;;
41233;SDS011;26968;42.686;23.352;2022-08-19T05:53:40;22.40;;;12.40;;
41233;SDS011;26968;42.686;23.352;2022-08-19T05:56:07;26.52;;;12.55;;
41233;SDS011;26968;42.686;23.352;2022-08-19T05:58:35;24.60;;;11.60;;
41233;SDS011;26968;42.686;23.352;2022-08-19T06:01:02;27.88;;;12.20;;
41233;SDS011;26968;42.686;23.352;2022-08-19T06:03:33;28.88;;;13.25;;
41233;SDS011;26968;42.686;23.352;2022-08-19T06:06:00;24.95;;;11.48;;
41233;SDS011;26968;42.686;23.352;2022-08-19T06:08:27;22.60;;;11.55;;
41233;SDS011;26968;42.686;23.352;2022-08-19T06:10:53;28.67;;;11.32;;
41233;SDS011;26968;42.686;23.352;2022-08-19T06:13:19;18.25;;;10.50;;
41233;SDS011;26968;42.686;23.352;2022-08-19T06:15:46;20.85;;;10.52;;
41233;SDS011;26968;42.686;23.352;2022-08-19T06:18:12;16.02;;;10.20;;
41233;SDS011;26968;42.686;23.352;2022-08-19T06:20:39;19.20;;;10.32;;
41233;SDS011;26968;42.686;23.352;2022-08-19T06:23:05;18.55;;;10.23;;
41233;SDS011;26968;42.686;23.352;2022-08-19T06:25:31;23.65;;;11.43;;
41233;SDS011;26968;42.686;23.352;2022-08-19T06:27:57;24.35;;;10.52;;
41233;SDS011;26968;42.686;23.352;2022-08-19T06:30:22;15.75;;;11.07;;
41233;SDS011;26968;42.686;23.352;2022-08-19T06:32:48;23.20;;;10.73;;
41233;SDS011;26968;42.686;23.352;2022-08-19T06:35:13;17.23;;;10.40;;
41233;SDS011;26968;42.686;23.352;2022-08-19T06:37:39;20.50;;;10.13;;
41233;SDS011;26968;42.686;23.352;2022-08-19T06:40:06;21.75;;;9.25;;
41233;SDS011;26968;42.686;23.352;2022-08-19T06:42:33;17.23;;;8.95;;
41233;SDS011;26968;42.686;23.352;2022-08-19T06:44:59;22.55;;;9.43;;
41233;SDS011;26968;42.686;23.352;2022-08-19T06:47:27;17.55;;;9.63;;
41233;SDS011;26968;42.686;23.352;2022-08-19T06:49:54;17.77;;;10.30;;
41233;SDS011;26968;42.686;23.352;2022-08-19T06:52:25;16.95;;;9.20;;
41233;SDS011;26968;42.686;23.352;2022-08-19T06:54:50;26.00;;;8.63;;
41233;SDS011;26968;42.686;23.352;2022-08-19T06:57:16;19.65;;;8.57;;
41233;SDS011;26968;42.686;23.352;2022-08-19T06:59:42;15.80;;;8.25;;
41233;SDS011;26968;42.686;23.352;2022-08-19T07:02:07;19.92;;;8.15;;
41233;SDS011;26968;42.686;23.352;2022-08-19T07:04:33;17.80;;;7.97;;
41233;SDS011;26968;42.686;23.352;2022-08-19T07:07:05;26.88;;;8.77;;
41233;SDS011;26968;42.686;23.352;2022-08-19T07:09:38;14.35;;;8.07;;
41233;SDS011;26968;42.686;23.352;2022-08-19T07:12:06;14.05;;;7.90;;
41233;SDS011;26968;42.686;23.352;2022-08-19T07:14:34;18.58;;;8.10;;
41233;SDS011;26968;42.686;23.352;2022-08-19T07:17:02;14.07;;;8.00;;
41233;SDS011;26968;42.686;23.352;2022-08-19T07:19:30;13.98;;;7.15;;
41233;SDS011;26968;42.686;23.352;2022-08-19T07:21:56;17.45;;;7.65;;
41233;SDS011;26968;42.686;23.352;2022-08-19T07:24:24;15.25;;;7.28;;
41233;SDS011;26968;42.686;23.352;2022-08-19T07:26:52;18.27;;;7.88;;
41233;SDS011;26968;42.686;23.352;2022-08-19T07:29:22;20.15;;;7.97;;
41233;SDS011;26968;42.686;23.352;2022-08-19T07:31:48;12.60;;;8.20;;
41233;SDS011;26968;42.686;23.352;2022-08-19T07:34:15;11.40;;;7.32;;
41233;SDS011;26968;42.686;23.352;2022-08-19T07:36:41;15.23;;;8.30;;
41233;SDS011;26968;42.686;23.352;2022-08-19T07:39:09;21.45;;;7.95;;
41233;SDS011;26968;42.686;23.352;2022-08-19T07:41:40;15.90;;;7.53;;
41233;SDS011;26968;42.686;23.352;2022-08-19T07:44:07;16.73;;;8.00;;
41233;SDS011;26968;42.686;23.352;2022-08-19T07:46:34;15.40;;;7.68;;
41233;SDS011;26968;42.686;23.352;2022-08-19T07:49:02;13.82;;;7.78;;
41233;SDS011;26968;42.686;23.352;2022-08-19T07:51:28;18.40;;;7.55;;
41233;SDS011;26968;42.686;23.352;2022-08-19T07:53:54;12.40;;;7.75;;
41233;SDS011;26968;42.686;23.352;2022-08-19T07:56:20;23.95;;;8.45;;
41233;SDS011;26968;42.686;23.352;2022-08-19T07:58:47;23.23;;;8.20;;
41233;SDS011;26968;42.686;23.352;2022-08-19T08:01:24;14.50;;;7.45;;
41233;SDS011;26968;42.686;23.352;2022-08-19T08:03:52;15.57;;;7.32;;
41233;SDS011;26968;42.686;23.352;2022-08-19T08:06:37;16.50;;;8.60;;
41233;SDS011;26968;42.686;23.352;2022-08-19T08:09:25;15.18;;;7.53;;
41233;SDS011;26968;42.686;23.352;2022-08-19T08:11:55;15.65;;;7.65;;
41233;SDS011;26968;42.686;23.352;2022-08-19T08:14:30;16.77;;;7.93;;
41233;SDS011;26968;42.686;23.352;2022-08-19T08:16:58;27.17;;;8.93;;
41233;SDS011;26968;42.686;23.352;2022-08-19T08:19:25;17.75;;;7.57;;
41233;SDS011;26968;42.686;23.352;2022-08-19T08:21:55;19.75;;;8.02;;
41233;SDS011;26968;42.686;23.352;2022-08-19T08:24:23;25.17;;;8.25;;
41233;SDS011;26968;42.686;23.352;2022-08-19T08:26:50;16.00;;;7.90;;
41233;SDS011;26968;42.686;23.352;2022-08-19T08:29:15;11.48;;;6.90;;
41233;SDS011;26968;42.686;23.352;2022-08-19T08:31:42;12.52;;;8.02;;
41233;SDS011;26968;42.686;23.352;2022-08-19T08:34:09;17.52;;;7.18;;
41233;SDS011;26968;42.686;23.352;2022-08-19T08:36:40;17.70;;;7.45;;
41233;SDS011;26968;42.686;23.352;2022-08-19T08:39:10;17.20;;;7.25;;
41233;SDS011;26968;42.686;23.352;2022-08-19T08:44:20;9.55;;;5.80;;
41233;SDS011;26968;42.686;23.352;2022-08-19T08:47:09;13.15;;;5.95;;
41233;SDS011;26968;42.686;23.352;2022-08-19T08:50:13;13.00;;;6.63;;
41233;SDS011;26968;42.686;23.352;2022-08-19T08:52:34;13.23;;;6.30;;
41233;SDS011;26968;42.686;23.352;2022-08-19T08:55:08;9.18;;;5.47;;
41233;SDS011;26968;42.686;23.352;2022-08-19T08:57:39;14.20;;;6.72;;
41233;SDS011;26968;42.686;23.352;2022-08-19T09:00:10;10.50;;;6.30;;
41233;SDS011;26968;42.686;23.352;2022-08-19T09:02:42;15.60;;;6.68;;
41233;SDS011;26968;42.686;23.352;2022-08-19T09:05:08;12.35;;;6.20;;
41233;SDS011;26968;42.686;23.352;2022-08-19T09:10:23;8.95;;;6.40;;
41233;SDS011;26968;42.686;23.352;2022-08-19T09:13:08;11.35;;;6.15;;
41233;SDS011;26968;42.686;23.352;2022-08-19T09:18:44;10.05;;;5.05;;
41233;SDS011;26968;42.686;23.352;2022-08-19T09:21:18;10.52;;;5.30;;
41233;SDS011;26968;42.686;23.352;2022-08-19T09:23:45;11.82;;;5.70;;
41233;SDS011;26968;42.686;23.352;2022-08-19T09:26:12;10.25;;;5.28;;
41233;SDS011;26968;42.686;23.352;2022-08-19T09:28:40;12.35;;;5.63;;
41233;SDS011;26968;42.686;23.352;2022-08-19T09:31:09;8.75;;;4.40;;
41233;SDS011;26968;42.686;23.352;2022-08-19T09:33:38;9.88;;;4.30;;
41233;SDS011;26968;42.686;23.352;2022-08-19T09:36:07;6.00;;;3.85;;
41233;SDS011;26968;42.686;23.352;2022-08-19T09:38:36;6.13;;;3.80;;
41233;SDS011;26968;42.686;23.352;2022-08-19T09:41:08;6.38;;;3.80;;
41233;SDS011;26968;42.686;23.352;2022-08-19T09:43:40;10.05;;;3.70;;
41233;SDS011;26968;42.686;23.352;2022-08-19T09:46:08;11.02;;;4.03;;
41233;SDS011;26968;42.686;23.352;2022-08-19T09:48:35;6.63;;;3.90;;
41233;SDS011;26968;42.686;23.352;2022-08-19T09:51:11;5.80;;;4.38;;
41233;SDS011;26968;42.686;23.352;2022-08-19T09:53:42;8.60;;;3.70;;
41233;SDS011;26968;42.686;23.352;2022-08-19T09:56:09;5.47;;;4.03;;
41233;SDS011;26968;42.686;23.352;2022-08-19T09:58:35;12.02;;;4.25;;
41233;SDS011;26968;42.686;23.352;2022-08-19T10:01:01;7.60;;;3.88;;
41233;SDS011;26968;42.686;23.352;2022-08-19T10:03:28;7.03;;;3.83;;
41233;SDS011;26968;42.686;23.352;2022-08-19T10:05:55;6.60;;;3.47;;
41233;SDS011;26968;42.686;23.352;2022-08-19T10:08:27;9.18;;;4.15;;
41233;SDS011;26968;42.686;23.352;2022-08-19T10:10:55;8.65;;;4.45;;
41233;SDS011;26968;42.686;23.352;2022-08-19T10:13:23;9.50;;;3.53;;
41233;SDS011;26968;42.686;23.352;2022-08-19T10:15:51;6.13;;;3.73;;
41233;SDS011;26968;42.686;23.352;2022-08-19T10:18:19;6.05;;;3.67;;
41233;SDS011;26968;42.686;23.352;2022-08-19T10:20:46;6.28;;;3.38;;
41233;SDS011;26968;42.686;23.352;2022-08-19T10:23:13;8.23;;;3.80;;
41233;SDS011;26968;42.686;23.352;2022-08-19T10:25:40;8.43;;;3.45;;
41233;SDS011;26968;42.686;23.352;2022-08-19T10:28:06;7.10;;;3.97;;
41233;SDS011;26968;42.686;23.352;2022-08-19T10:30:32;3.75;;;3.35;;
41233;SDS011;26968;42.686;23.352;2022-08-19T10:32:58;10.52;;;4.25;;
41233;SDS011;26968;42.686;23.352;2022-08-19T10:35:24;8.27;;;4.05;;
41233;SDS011;26968;42.686;23.352;2022-08-19T10:37:52;8.82;;;3.83;;
41233;SDS011;26968;42.686;23.352;2022-08-19T10:40:18;4.45;;;3.85;;
41233;SDS011;26968;42.686;23.352;2022-08-19T10:42:44;10.10;;;3.88;;
41233;SDS011;26968;42.686;23.352;2022-08-19T10:45:09;6.57;;;4.13;;
41233;SDS011;26968;42.686;23.352;2022-08-19T10:47:35;5.40;;;3.83;;
41233;SDS011;26968;42.686;23.352;2022-08-19T10:50:02;7.05;;;3.78;;
41233;SDS011;26968;42.686;23.352;2022-08-19T10:52:48;5.75;;;3.95;;
41233;SDS011;26968;42.686;23.352;2022-08-19T10:55:14;7.80;;;3.67;;
41233;SDS011;26968;42.686;23.352;2022-08-19T10:57:58;7.18;;;3.42;;
41233;SDS011;26968;42.686;23.352;2022-08-19T11:00:24;7.22;;;3.53;;
41233;SDS011;26968;42.686;23.352;2022-08-19T11:02:50;5.97;;;4.43;;
41233;SDS011;26968;42.686;23.352;2022-08-19T11:05:16;6.35;;;3.45;;
41233;SDS011;26968;42.686;23.352;2022-08-19T11:07:43;9.07;;;3.65;;
41233;SDS011;26968;42.686;23.352;2022-08-19T11:10:10;6.18;;;3.45;;
41233;SDS011;26968;42.686;23.352;2022-08-19T11:12:38;7.88;;;3.53;;
41233;SDS011;26968;42.686;23.352;2022-08-19T11:15:05;3.80;;;3.13;;
41233;SDS011;26968;42.686;23.352;2022-08-19T11:17:33;7.30;;;4.43;;
41233;SDS011;26968;42.686;23.352;2022-08-19T11:19:58;12.50;;;4.28;;
41233;SDS011;26968;42.686;23.352;2022-08-19T11:22:28;5.18;;;3.75;;
41233;SDS011;26968;42.686;23.352;2022-08-19T11:24:53;7.50;;;4.00;;
41233;SDS011;26968;42.686;23.352;2022-08-19T11:27:20;8.38;;;4.03;;
41233;SDS011;26968;42.686;23.352;2022-08-19T11:29:46;7.53;;;3.97;;
41233;SDS011;26968;42.686;23.352;2022-08-19T11:32:11;4.60;;;3.55;;
41233;SDS011;26968;42.686;23.352;2022-08-19T11:34:37;8.55;;;4.07;;
41233;SDS011;26968;42.686;23.352;2022-08-19T11:37:04;7.32;;;4.00;;
41233;SDS011;26968;42.686;23.352;2022-08-19T11:39:31;12.07;;;4.47;;
41233;SDS011;26968;42.686;23.352;2022-08-19T11:41:58;7.65;;;4.07;;
41233;SDS011;26968;42.686;23.352;2022-08-19T11:44:24;6.65;;;4.22;;
41233;SDS011;26968;42.686;23.352;2022-08-19T11:46:50;4.47;;;4.00;;
41233;SDS011;26968;42.686;23.352;2022-08-19T11:49:18;8.48;;;4.28;;
41233;SDS011;26968;42.686;23.352;2022-08-19T11:51:44;6.32;;;3.67;;
41233;SDS011;26968;42.686;23.352;2022-08-19T11:54:11;7.90;;;4.03;;
41233;SDS011;26968;42.686;23.352;2022-08-19T11:56:38;5.45;;;3.65;;
41233;SDS011;26968;42.686;23.352;2022-08-19T11:59:04;7.47;;;3.88;;
41233;SDS011;26968;42.686;23.352;2022-08-19T12:01:31;7.13;;;4.35;;
41233;SDS011;26968;42.686;23.352;2022-08-19T12:03:57;6.03;;;4.07;;
41233;SDS011;26968;42.686;23.352;2022-08-19T12:06:27;7.75;;;3.88;;
41233;SDS011;26968;42.686;23.352;2022-08-19T12:08:55;7.32;;;3.95;;
41233;SDS011;26968;42.686;23.352;2022-08-19T12:11:21;8.73;;;4.22;;
41233;SDS011;26968;42.686;23.352;2022-08-19T12:13:48;6.68;;;4.43;;
41233;SDS011;26968;42.686;23.352;2022-08-19T12:16:17;5.13;;;3.88;;
41233;SDS011;26968;42.686;23.352;2022-08-19T12:18:44;6.18;;;3.50;;
41233;SDS011;26968;42.686;23.352;2022-08-19T12:21:17;9.63;;;4.03;;
41233;SDS011;26968;42.686;23.352;2022-08-19T12:23:46;7.47;;;3.90;;
41233;SDS011;26968;42.686;23.352;2022-08-19T12:26:13;6.93;;;3.70;;
41233;SDS011;26968;42.686;23.352;2022-08-19T12:28:39;9.98;;;4.30;;
41233;SDS011;26968;42.686;23.352;2022-08-19T12:31:06;8.48;;;3.97;;
41233;SDS011;26968;42.686;23.352;2022-08-19T12:33:32;6.70;;;3.85;;
41233;SDS011;26968;42.686;23.352;2022-08-19T12:36:01;9.82;;;4.28;;
41233;SDS011;26968;42.686;23.352;2022-08-19T12:38:29;10.35;;;4.28;;
41233;SDS011;26968;42.686;23.352;2022-08-19T12:40:55;11.50;;;4.38;;
41233;SDS011;26968;42.686;23.352;2022-08-19T12:43:20;9.40;;;4.03;;
41233;SDS011;26968;42.686;23.352;2022-08-19T12:45:46;8.35;;;4.35;;
41233;SDS011;26968;42.686;23.352;2022-08-19T12:48:12;8.57;;;4.50;;
41233;SDS011;26968;42.686;23.352;2022-08-19T12:50:39;5.47;;;4.30;;
41233;SDS011;26968;42.686;23.352;2022-08-19T12:53:06;5.63;;;3.80;;
41233;SDS011;26968;42.686;23.352;2022-08-19T12:55:31;5.82;;;3.67;;
41233;SDS011;26968;42.686;23.352;2022-08-19T12:57:57;6.80;;;4.47;;
41233;SDS011;26968;42.686;23.352;2022-08-19T13:00:22;9.07;;;3.88;;
41233;SDS011;26968;42.686;23.352;2022-08-19T13:02:49;6.85;;;4.00;;
41233;SDS011;26968;42.686;23.352;2022-08-19T13:05:18;8.93;;;4.28;;
41233;SDS011;26968;42.686;23.352;2022-08-19T13:07:49;6.95;;;3.80;;
41233;SDS011;26968;42.686;23.352;2022-08-19T13:10:16;11.20;;;4.15;;
41233;SDS011;26968;42.686;23.352;2022-08-19T13:12:45;4.40;;;4.00;;
41233;SDS011;26968;42.686;23.352;2022-08-19T13:15:13;3.97;;;3.53;;
41233;SDS011;26968;42.686;23.352;2022-08-19T13:17:40;9.50;;;4.00;;
41233;SDS011;26968;42.686;23.352;2022-08-19T13:20:07;7.40;;;3.90;;
41233;SDS011;26968;42.686;23.352;2022-08-19T13:22:34;6.53;;;4.28;;
41233;SDS011;26968;42.686;23.352;2022-08-19T13:25:03;9.05;;;4.32;;
41233;SDS011;26968;42.686;23.352;2022-08-19T13:27:30;8.80;;;4.32;;
41233;SDS011;26968;42.686;23.352;2022-08-19T13:29:56;10.05;;;3.95;;
41233;SDS011;26968;42.686;23.352;2022-08-19T13:32:39;7.28;;;3.88;;
41233;SDS011;26968;42.686;23.352;2022-08-19T13:35:23;9.85;;;4.40;;
41233;SDS011;26968;42.686;23.352;2022-08-19T13:37:49;7.72;;;3.80;;
41233;SDS011;26968;42.686;23.352;2022-08-19T13:40:16;8.15;;;3.70;;
41233;SDS011;26968;42.686;23.352;2022-08-19T13:42:48;6.47;;;3.80;;
41233;SDS011;26968;42.686;23.352;2022-08-19T13:45:15;6.40;;;3.85;;
41233;SDS011;26968;42.686;23.352;2022-08-19T13:47:44;9.38;;;3.53;;
41233;SDS011;26968;42.686;23.352;2022-08-19T13:50:11;8.23;;;3.40;;
41233;SDS011;26968;42.686;23.352;2022-08-19T13:52:38;8.07;;;4.25;;
41233;SDS011;26968;42.686;23.352;2022-08-19T13:55:05;12.00;;;4.05;;
41233;SDS011;26968;42.686;23.352;2022-08-19T13:57:31;7.43;;;4.13;;
41233;SDS011;26968;42.686;23.352;2022-08-19T13:59:57;7.10;;;3.88;;
41233;SDS011;26968;42.686;23.352;2022-08-19T14:02:24;10.02;;;4.03;;
41233;SDS011;26968;42.686;23.352;2022-08-19T14:04:50;5.15;;;3.80;;
41233;SDS011;26968;42.686;23.352;2022-08-19T14:07:15;9.65;;;4.10;;
41233;SDS011;26968;42.686;23.352;2022-08-19T14:09:41;7.22;;;3.80;;
41233;SDS011;26968;42.686;23.352;2022-08-19T14:12:06;7.82;;;4.30;;
41233;SDS011;26968;42.686;23.352;2022-08-19T14:14:36;6.43;;;3.80;;
41233;SDS011;26968;42.686;23.352;2022-08-19T14:17:05;8.52;;;3.83;;
41233;SDS011;26968;42.686;23.352;2022-08-19T14:19:32;14.55;;;4.25;;
41233;SDS011;26968;42.686;23.352;2022-08-19T14:21:58;8.02;;;3.80;;
41233;SDS011;26968;42.686;23.352;2022-08-19T14:24:23;5.60;;;4.10;;
41233;SDS011;26968;42.686;23.352;2022-08-19T14:26:49;8.68;;;4.18;;
41233;SDS011;26968;42.686;23.352;2022-08-19T14:29:14;7.38;;;4.07;;
41233;SDS011;26968;42.686;23.352;2022-08-19T14:31:41;6.07;;;3.72;;
41233;SDS011;26968;42.686;23.352;2022-08-19T14:34:08;5.95;;;4.00;;
41233;SDS011;26968;42.686;23.352;2022-08-19T14:36:35;6.10;;;3.65;;
41233;SDS011;26968;42.686;23.352;2022-08-19T14:39:01;14.50;;;4.60;;